Time;durP1;ratioP1;P1;durP2;ratioP2;P2;SDS_P1;SDS_P2;PMS_P1;PMS_P2;Temp;Humidity;BMP_temperature;BMP_pressure;BME280_temperature;BME280_humidity;BME280_pressure;Samples;Min_cycle;Max_cycle;Signal;HPM_P1;HPM_P2
2023/12/29 00:00:31;;;;;;;2.38;0.55;;;20.90;52.40;;;;;;5117797;28;20039;-36
2023/12/29 00:02:57;;;;;;;1.33;0.60;;;20.90;52.40;;;;;;5109843;28;20118;-34
2023/12/29 00:05:23;;;;;;;1.45;0.47;;;20.90;52.40;;;;;;5111286;28;20019;-34
2023/12/29 00:07:49;;;;;;;1.65;0.50;;;20.90;52.40;;;;;;5114539;28;20036;-35
2023/12/29 00:10:15;;;;;;;1.20;0.50;;;20.90;52.40;;;;;;5111458;28;20177;-34
2023/12/29 00:12:41;;;;;;;0.60;0.45;;;20.90;52.30;;;;;;5108068;28;20810;-34
2023/12/29 00:15:08;;;;;;;0.75;0.50;;;20.90;52.40;;;;;;5119565;27;21654;-34
2023/12/29 00:17:37;;;;;;;0.65;0.45;;;20.90;52.50;;;;;;5116401;28;20023;-34
2023/12/29 00:20:07;;;;;;;1.23;0.57;;;20.90;52.50;;;;;;5113333;28;20023;-34
2023/12/29 00:22:34;;;;;;;0.73;0.47;;;20.90;52.50;;;;;;5109850;28;20051;-34
2023/12/29 00:25:00;;;;;;;1.45;0.50;;;20.80;52.50;;;;;;5117608;27;20110;-34
2023/12/29 00:27:26;;;;;;;0.95;0.50;;;20.90;52.50;;;;;;5116884;28;20039;-35
2023/12/29 00:29:52;;;;;;;0.60;0.50;;;20.90;52.40;;;;;;5120793;28;20057;-35
2023/12/29 00:32:18;;;;;;;0.45;0.45;;;20.90;52.40;;;;;;5116432;28;20047;-35
2023/12/29 00:34:45;;;;;;;1.95;0.50;;;20.90;52.50;;;;;;5118002;27;20020;-35
2023/12/29 00:37:11;;;;;;;0.90;0.57;;;20.90;52.60;;;;;;5117465;28;20134;-34
2023/12/29 00:39:40;;;;;;;0.77;0.40;;;20.80;52.50;;;;;;5120637;27;20023;-34
2023/12/29 00:42:06;;;;;;;0.98;0.50;;;20.80;52.50;;;;;;5120810;28;20043;-35
2023/12/29 00:44:33;;;;;;;1.52;0.52;;;20.80;52.60;;;;;;5112555;28;20384;-35
2023/12/29 00:47:00;;;;;;;0.45;0.32;;;20.80;52.50;;;;;;5117987;28;20047;-35
2023/12/29 00:49:26;;;;;;;1.08;0.57;;;20.90;52.40;;;;;;5107789;28;20577;-35
2023/12/29 00:51:52;;;;;;;0.75;0.50;;;20.90;52.40;;;;;;5124612;27;20077;-35
2023/12/29 00:54:19;;;;;;;1.67;0.47;;;20.80;52.50;;;;;;5113665;28;20044;-34
2023/12/29 00:56:51;;;;;;;0.70;0.50;;;20.80;52.40;;;;;;5115826;28;20024;-34
2023/12/29 00:59:19;;;;;;;1.63;0.60;;;20.80;52.50;;;;;;5105054;28;20035;-34
2023/12/29 01:01:46;;;;;;;1.60;0.60;;;20.70;52.50;;;;;;5094984;28;20040;-35
2023/12/29 01:04:12;;;;;;;0.70;0.60;;;20.70;52.40;;;;;;5099036;28;20077;-41
2023/12/29 01:06:38;;;;;;;0.65;0.60;;;20.80;52.30;;;;;;5111346;28;20028;-35
2023/12/29 01:09:05;;;;;;;0.73;0.57;;;20.80;52.30;;;;;;5108313;28;20135;-35
2023/12/29 01:11:32;;;;;;;2.35;0.77;;;20.80;52.50;;;;;;5120905;28;20051;-35
2023/12/29 01:13:58;;;;;;;0.85;0.70;;;20.70;52.40;;;;;;5111837;27;20042;-36
2023/12/29 01:16:24;;;;;;;0.40;0.40;;;20.70;52.50;;;;;;5115029;27;20016;-35
2023/12/29 01:18:50;;;;;;;1.15;0.80;;;20.70;52.50;;;;;;5107593;28;20041;-35
2023/12/29 01:21:16;;;;;;;0.82;0.60;;;20.70;52.40;;;;;;5113149;28;20123;-35
2023/12/29 01:23:42;;;;;;;1.20;0.70;;;20.80;52.50;;;;;;5117194;28;20032;-34
2023/12/29 01:26:08;;;;;;;0.75;0.70;;;20.80;52.30;;;;;;5114339;28;20024;-34
2023/12/29 01:28:35;;;;;;;1.10;0.80;;;20.90;52.30;;;;;;5113183;28;20037;-34
2023/12/29 01:31:01;;;;;;;0.90;0.60;;;20.90;52.40;;;;;;5111763;28;20084;-34
2023/12/29 01:33:27;;;;;;;0.70;0.68;;;20.90;52.30;;;;;;5111771;28;20391;-34
2023/12/29 01:35:53;;;;;;;0.73;0.70;;;20.90;52.20;;;;;;5114069;28;20081;-35
2023/12/29 01:38:20;;;;;;;2.22;0.60;;;20.90;52.10;;;;;;5118647;28;20038;-34
2023/12/29 01:40:46;;;;;;;1.38;0.70;;;20.90;52.00;;;;;;5113095;28;20041;-34
2023/12/29 01:43:12;;;;;;;0.70;0.70;;;21.00;52.10;;;;;;5091333;28;20027;-35
2023/12/29 01:45:39;;;;;;;1.00;0.77;;;20.90;52.20;;;;;;5111660;28;20062;-36
2023/12/29 01:48:05;;;;;;;0.77;0.52;;;21.00;52.10;;;;;;5111462;28;20051;-35
2023/12/29 01:50:32;;;;;;;0.85;0.55;;;21.00;52.20;;;;;;5116579;28;20141;-34
2023/12/29 01:52:58;;;;;;;1.05;0.65;;;21.00;52.00;;;;;;5110931;28;20165;-35
2023/12/29 01:55:24;;;;;;;0.75;0.70;;;21.00;51.90;;;;;;5094532;28;20028;-36
2023/12/29 01:57:50;;;;;;;2.20;0.60;;;21.00;51.80;;;;;;5097799;28;20433;-35
2023/12/29 02:00:18;;;;;;;0.63;0.60;;;21.00;51.90;;;;;;5106920;28;20063;-36
2023/12/29 02:02:47;;;;;;;0.52;0.52;;;21.00;51.90;;;;;;5091289;28;20038;-36
2023/12/29 02:05:14;;;;;;;0.73;0.60;;;21.00;51.80;;;;;;5110990;28;20039;-36
2023/12/29 02:07:42;;;;;;;0.75;0.60;;;21.00;51.70;;;;;;5106772;28;20024;-35
2023/12/29 02:10:09;;;;;;;0.95;0.70;;;21.10;51.70;;;;;;5109070;28;20270;-35
2023/12/29 02:12:38;;;;;;;0.60;0.50;;;21.10;51.60;;;;;;5095911;28;20042;-35
2023/12/29 02:15:05;;;;;;;1.27;0.70;;;21.10;51.70;;;;;;5115161;28;20075;-35
2023/12/29 02:17:46;;;;;;;1.13;0.68;;;21.10;51.60;;;;;;5111782;28;20095;-36
2023/12/29 02:20:13;;;;;;;1.20;0.60;;;21.10;51.60;;;;;;5092315;28;20032;-35
2023/12/29 02:22:39;;;;;;;0.80;0.50;;;21.10;51.50;;;;;;5103594;28;20093;-33
2023/12/29 02:25:06;;;;;;;0.82;0.57;;;21.20;51.40;;;;;;5111080;28;20028;-35
2023/12/29 02:27:45;;;;;;;0.63;0.60;;;21.20;51.40;;;;;;5114119;28;20092;-35
2023/12/29 02:30:39;;;;;;;0.70;0.40;;;21.20;51.50;;;;;;5115879;28;20601;-35
2023/12/29 02:33:08;;;;;;;1.08;0.60;;;21.20;51.50;;;;;;5094616;28;20035;-35
2023/12/29 02:35:37;;;;;;;1.10;0.55;;;21.20;51.40;;;;;;5092633;28;20036;-35
2023/12/29 02:38:03;;;;;;;0.98;0.60;;;21.20;51.30;;;;;;5095540;28;20019;-35
2023/12/29 02:40:30;;;;;;;0.88;0.63;;;21.20;51.30;;;;;;5117074;28;20032;-35
2023/12/29 02:42:56;;;;;;;1.10;0.60;;;21.20;51.40;;;;;;5099356;28;20066;-36
2023/12/29 02:45:23;;;;;;;2.03;0.70;;;21.20;51.50;;;;;;5097479;28;20092;-36
2023/12/29 02:47:49;;;;;;;0.77;0.57;;;21.20;51.50;;;;;;5117572;28;20032;-36
2023/12/29 02:50:16;;;;;;;1.10;0.68;;;21.20;51.40;;;;;;5131688;27;20044;-35
2023/12/29 02:52:42;;;;;;;0.97;0.67;;;21.20;51.30;;;;;;5101103;28;20019;-37
2023/12/29 02:55:08;;;;;;;0.30;0.30;;;21.20;51.20;;;;;;5118491;28;20028;-35
2023/12/29 02:57:35;;;;;;;0.40;0.40;;;21.20;51.20;;;;;;5119136;28;20111;-36
2023/12/29 03:00:01;;;;;;;1.10;0.65;;;21.20;51.20;;;;;;5118861;28;20042;-36
2023/12/29 03:02:48;;;;;;;0.68;0.50;;;21.20;51.20;;;;;;5056772;28;20049;-36
2023/12/29 03:05:14;;;;;;;1.38;0.57;;;21.20;51.20;;;;;;5056630;28;20037;-36
2023/12/29 03:07:41;;;;;;;0.63;0.52;;;21.20;51.20;;;;;;5056499;28;20037;-36
2023/12/29 03:10:08;;;;;;;0.50;0.50;;;21.20;51.10;;;;;;5057789;28;20540;-36
2023/12/29 03:12:34;;;;;;;0.73;0.50;;;21.30;51.00;;;;;;5056709;28;20756;-36
2023/12/29 03:15:00;;;;;;;0.50;0.50;;;21.30;51.10;;;;;;5055005;28;20032;-35
2023/12/29 03:17:29;;;;;;;0.50;0.40;;;21.20;51.00;;;;;;5057007;28;20033;-36
2023/12/29 03:19:55;;;;;;;0.57;0.45;;;21.20;51.00;;;;;;5057338;28;20044;-36
2023/12/29 03:22:21;;;;;;;1.05;0.52;;;21.20;51.00;;;;;;5057829;28;20047;-35
2023/12/29 03:24:49;;;;;;;0.50;0.43;;;21.20;50.90;;;;;;5056585;28;20086;-35
2023/12/29 03:27:16;;;;;;;0.57;0.50;;;21.20;50.90;;;;;;5055600;28;20045;-36
2023/12/29 03:29:42;;;;;;;1.67;0.50;;;21.30;51.00;;;;;;5055432;28;20021;-36
2023/12/29 03:32:08;;;;;;;1.13;0.70;;;21.30;51.00;;;;;;5056702;28;20140;-35
2023/12/29 03:34:34;;;;;;;1.40;0.50;;;21.20;50.90;;;;;;5055342;28;20033;-35
2023/12/29 03:37:00;;;;;;;1.20;0.80;;;21.20;51.20;;;;;;5056517;28;20040;-35
2023/12/29 03:39:26;;;;;;;1.83;0.90;;;21.20;51.20;;;;;;5072586;28;20036;-35
2023/12/29 03:41:53;;;;;;;0.93;0.82;;;21.30;51.10;;;;;;5113727;28;20040;-36
2023/12/29 03:44:19;;;;;;;1.10;0.80;;;21.30;51.00;;;;;;5114435;28;20058;-35
2023/12/29 03:46:46;;;;;;;3.03;1.40;;;21.30;51.00;;;;;;5116013;28;20123;-35
2023/12/29 03:49:12;;;;;;;1.27;0.63;;;21.30;50.90;;;;;;5099842;28;20476;-36
2023/12/29 03:51:38;;;;;;;1.70;0.95;;;21.20;50.80;;;;;;5114771;28;20103;-35
2023/12/29 03:54:04;;;;;;;1.97;1.10;;;21.20;50.70;;;;;;5115620;27;20095;-38
2023/12/29 03:56:31;;;;;;;1.98;1.05;;;21.20;50.70;;;;;;5098747;28;20467;-35
2023/12/29 03:58:57;;;;;;;3.35;1.15;;;21.30;50.70;;;;;;5109471;28;20028;-35
2023/12/29 04:01:25;;;;;;;1.23;1.00;;;21.30;51.00;;;;;;5110056;28;20028;-36
2023/12/29 04:03:50;;;;;;;;;;;21.30;51.50;;;;;;5112628;28;20777;-35
2023/12/29 04:06:17;;;;;;;1.30;1.00;;;21.30;51.60;;;;;;5110895;27;19975;-36
2023/12/29 04:08:43;;;;;;;1.63;0.85;;;21.30;51.50;;;;;;5118260;27;20031;-35
2023/12/29 04:11:10;;;;;;;2.70;1.00;;;21.30;51.30;;;;;;5112545;28;20023;-35
2023/12/29 04:13:39;;;;;;;1.27;0.95;;;21.30;51.10;;;;;;5117508;28;20546;-35
2023/12/29 04:16:05;;;;;;;1.55;1.00;;;21.30;51.10;;;;;;5114314;27;20028;-35
2023/12/29 04:18:31;;;;;;;1.95;1.10;;;21.30;51.10;;;;;;5116858;28;20032;-35
2023/12/29 04:20:57;;;;;;;0.85;0.80;;;21.30;51.10;;;;;;5118000;28;20047;-35
2023/12/29 04:23:24;;;;;;;1.60;0.75;;;21.30;51.00;;;;;;5119434;28;20043;-35
2023/12/29 04:25:50;;;;;;;1.10;0.80;;;21.20;51.00;;;;;;5114802;28;20572;-35
2023/12/29 04:28:16;;;;;;;1.08;0.70;;;21.30;50.90;;;;;;5116197;27;20063;-36
2023/12/29 04:30:43;;;;;;;2.17;0.50;;;21.30;50.80;;;;;;5118707;28;20054;-35
2023/12/29 04:33:09;;;;;;;1.75;0.80;;;21.30;50.90;;;;;;5118374;28;20055;-35
2023/12/29 04:35:35;;;;;;;0.90;0.80;;;21.30;50.90;;;;;;5117712;28;20023;-35
2023/12/29 04:38:01;;;;;;;1.38;1.00;;;21.30;50.90;;;;;;5111461;27;20104;-36
2023/12/29 04:40:28;;;;;;;2.58;0.80;;;21.30;50.90;;;;;;5114891;27;20036;-35
2023/12/29 04:42:54;;;;;;;1.25;0.70;;;21.30;51.00;;;;;;5113329;28;20051;-38
2023/12/29 04:45:20;;;;;;;2.13;0.75;;;21.30;50.90;;;;;;5117159;28;20039;-36
2023/12/29 04:47:46;;;;;;;1.20;0.70;;;21.30;51.10;;;;;;5112144;28;20027;-36
2023/12/29 04:50:13;;;;;;;2.13;0.90;;;21.20;51.00;;;;;;5110057;28;20035;-36
2023/12/29 04:52:39;;;;;;;1.08;0.82;;;21.10;51.10;;;;;;5112641;28;20096;-35
2023/12/29 04:55:05;;;;;;;2.08;0.80;;;21.10;51.10;;;;;;5117883;27;20103;-36
2023/12/29 04:57:31;;;;;;;1.02;0.70;;;21.00;51.20;;;;;;5095147;28;20027;-35
2023/12/29 04:59:58;;;;;;;2.30;0.60;;;20.90;51.20;;;;;;5113623;28;20089;-35
2023/12/29 05:02:24;;;;;;;1.38;0.70;;;20.90;51.40;;;;;;5115728;28;20051;-35
2023/12/29 05:04:50;;;;;;;0.95;0.50;;;20.90;51.40;;;;;;5113783;28;20530;-35
2023/12/29 05:07:17;;;;;;;1.13;0.57;;;21.00;51.20;;;;;;5110995;28;20031;-35
2023/12/29 05:09:43;;;;;;;0.95;0.50;;;20.90;51.30;;;;;;5111487;28;20038;-34
2023/12/29 05:12:09;;;;;;;0.77;0.60;;;20.90;51.30;;;;;;5110012;28;20030;-34
2023/12/29 05:14:35;;;;;;;0.68;0.50;;;20.80;51.30;;;;;;5111158;28;20027;-34
2023/12/29 05:17:02;;;;;;;0.93;0.60;;;20.70;51.30;;;;;;5111173;28;20091;-34
2023/12/29 05:19:28;;;;;;;0.80;0.60;;;20.70;51.50;;;;;;5115701;27;20115;-35
2023/12/29 05:21:54;;;;;;;0.70;0.50;;;20.70;51.40;;;;;;5118622;28;20032;-34
2023/12/29 05:24:20;;;;;;;1.02;0.40;;;20.80;51.30;;;;;;5113949;28;20146;-34
2023/12/29 05:26:46;;;;;;;1.33;0.50;;;20.90;51.20;;;;;;5110273;28;20042;-34
2023/12/29 05:29:12;;;;;;;1.10;0.50;;;20.90;51.10;;;;;;5106399;28;20032;-35
2023/12/29 05:31:39;;;;;;;0.90;0.50;;;21.00;51.20;;;;;;5114256;28;20031;-34
2023/12/29 05:34:05;;;;;;;0.80;0.40;;;21.00;51.10;;;;;;5113183;28;20034;-34
2023/12/29 05:36:34;;;;;;;0.80;0.40;;;21.10;51.00;;;;;;5112946;28;20539;-34
2023/12/29 05:39:00;;;;;;;0.50;0.40;;;21.20;50.90;;;;;;5090121;28;20036;-34
2023/12/29 05:41:26;;;;;;;0.30;0.30;;;21.30;50.60;;;;;;5110617;28;20055;-35
2023/12/29 05:43:52;;;;;;;0.82;0.40;;;21.40;50.70;;;;;;5111926;28;20039;-34
2023/12/29 05:46:18;;;;;;;0.85;0.40;;;21.40;50.70;;;;;;5112180;28;20027;-34
2023/12/29 05:48:45;;;;;;;0.50;0.50;;;21.50;50.70;;;;;;5111204;28;20087;-34
2023/12/29 05:51:13;;;;;;;0.75;0.40;;;21.50;50.70;;;;;;5097807;28;20047;-33
2023/12/29 05:53:43;;;;;;;0.43;0.30;;;21.60;50.50;;;;;;5090131;28;20421;-34
2023/12/29 05:56:13;;;;;;;0.30;0.30;;;21.60;50.20;;;;;;5114720;28;20092;-34
2023/12/29 05:58:42;;;;;;;0.30;0.30;;;21.70;50.20;;;;;;5117585;28;20039;-34
2023/12/29 06:01:08;;;;;;;0.30;0.30;;;21.70;50.20;;;;;;5117180;28;20031;-34
2023/12/29 06:03:35;;;;;;;0.60;0.32;;;21.80;50.30;;;;;;5116315;28;20050;-35
2023/12/29 06:06:01;;;;;;;0.57;0.30;;;21.80;50.20;;;;;;5101711;28;20035;-35
2023/12/29 06:08:27;;;;;;;0.47;0.40;;;21.90;50.20;;;;;;5108304;28;20026;-35
2023/12/29 06:10:53;;;;;;;0.30;0.30;;;22.00;50.00;;;;;;5115659;28;20035;-35
2023/12/29 06:13:20;;;;;;;0.40;0.30;;;22.10;49.60;;;;;;5111093;28;20020;-35
2023/12/29 06:15:46;;;;;;;0.50;0.30;;;22.10;49.80;;;;;;5094370;28;20463;-34
2023/12/29 06:18:12;;;;;;;0.82;0.40;;;22.00;49.70;;;;;;5113407;28;20016;-34
2023/12/29 06:20:38;;;;;;;0.65;0.30;;;22.00;49.80;;;;;;5108984;28;20051;-34
2023/12/29 06:23:04;;;;;;;0.35;0.30;;;21.90;49.70;;;;;;5113871;28;20040;-34
2023/12/29 06:25:30;;;;;;;0.45;0.30;;;21.80;49.60;;;;;;5115814;28;20514;-35
2023/12/29 06:27:56;;;;;;;0.98;0.40;;;21.80;49.20;;;;;;5119633;28;20036;-34
2023/12/29 06:30:23;;;;;;;1.98;0.40;;;21.80;49.50;;;;;;5124439;27;20123;-34
2023/12/29 06:32:49;;;;;;;0.52;0.22;;;21.80;49.70;;;;;;5121419;28;20096;-34
2023/12/29 06:35:15;;;;;;;0.75;0.30;;;21.70;49.80;;;;;;5121935;28;20031;-34
2023/12/29 06:37:41;;;;;;;0.40;0.30;;;21.60;49.90;;;;;;5120749;28;20492;-33
2023/12/29 06:40:08;;;;;;;0.60;0.40;;;21.50;49.90;;;;;;5121768;28;20028;-34
2023/12/29 06:42:34;;;;;;;0.65;0.38;;;21.60;49.70;;;;;;5120738;27;20077;-34
2023/12/29 06:45:01;;;;;;;0.40;0.30;;;21.80;49.50;;;;;;5119840;28;20028;-34
2023/12/29 06:47:27;;;;;;;0.20;0.20;;;21.90;49.40;;;;;;5104843;28;20027;-35
2023/12/29 06:49:53;;;;;;;0.57;0.30;;;22.00;49.50;;;;;;5118163;28;20611;-34
2023/12/29 06:52:19;;;;;;;0.47;0.30;;;22.00;49.50;;;;;;5119724;28;20031;-34
2023/12/29 06:54:45;;;;;;;0.40;0.35;;;22.00;49.40;;;;;;5122186;28;20031;-34
2023/12/29 06:57:14;;;;;;;0.40;0.30;;;22.10;49.40;;;;;;5121204;27;20055;-35
2023/12/29 06:59:40;;;;;;;0.32;0.32;;;22.10;48.90;;;;;;5121074;28;20030;-34
2023/12/29 07:02:07;;;;;;;1.27;0.37;;;22.10;48.90;;;;;;5119306;28;20040;-35
2023/12/29 07:04:33;;;;;;;0.57;0.27;;;22.10;49.10;;;;;;5117757;27;20024;-35
2023/12/29 07:07:01;;;;;;;0.30;0.30;;;22.00;49.00;;;;;;5120019;27;20284;-34
2023/12/29 07:09:27;;;;;;;1.23;0.30;;;21.90;49.10;;;;;;5116695;28;20098;-35
2023/12/29 07:11:54;;;;;;;0.80;0.45;;;21.80;49.20;;;;;;5120242;28;20032;-34
2023/12/29 07:14:20;;;;;;;0.50;0.30;;;21.80;49.10;;;;;;5116931;28;20038;-35
2023/12/29 07:16:46;;;;;;;0.20;0.20;;;21.80;48.90;;;;;;5121788;28;20038;-35
2023/12/29 07:19:13;;;;;;;0.43;0.30;;;21.70;49.10;;;;;;5101738;28;20028;-35
2023/12/29 07:21:39;;;;;;;0.55;0.40;;;21.70;49.30;;;;;;5121674;28;20069;-35
2023/12/29 07:24:05;;;;;;;1.20;0.38;;;21.50;49.20;;;;;;5119172;28;20035;-35
2023/12/29 07:26:34;;;;;;;0.30;0.30;;;21.50;49.30;;;;;;5122618;28;20023;-35
2023/12/29 07:29:20;;;;;;;0.50;0.32;;;21.70;49.20;;;;;;5121281;28;20034;-35
2023/12/29 07:31:46;;;;;;;0.52;0.30;;;21.80;48.80;;;;;;5019836;28;20541;-35
2023/12/29 07:34:13;;;;;;;0.60;0.30;;;21.90;49.10;;;;;;5017590;28;20049;-34
2023/12/29 07:36:40;;;;;;;0.30;0.22;;;21.90;49.20;;;;;;5019016;28;20129;-33
2023/12/29 07:39:07;;;;;;;0.30;0.30;;;22.00;49.40;;;;;;5002897;28;20057;-34
2023/12/29 07:41:33;;;;;;;0.47;0.30;;;22.00;49.40;;;;;;5019125;28;20037;-33
2023/12/29 07:43:59;;;;;;;0.70;0.30;;;22.10;49.20;;;;;;5016127;28;20042;-33
2023/12/29 07:46:29;;;;;;;0.93;0.35;;;22.20;48.90;;;;;;5019057;28;20424;-34
2023/12/29 07:48:55;;;;;;;0.50;0.30;;;22.20;48.90;;;;;;5019272;28;20045;-34
2023/12/29 07:51:21;;;;;;;0.40;0.30;;;22.10;49.00;;;;;;5018457;28;20061;-34
2023/12/29 07:53:47;;;;;;;0.73;0.30;;;22.00;49.20;;;;;;5002488;28;20131;-34
2023/12/29 07:56:14;;;;;;;0.20;0.20;;;21.90;49.50;;;;;;5020830;28;20053;-35
2023/12/29 07:58:40;;;;;;;2.00;0.38;;;21.90;49.70;;;;;;5017753;28;20029;-34
2023/12/29 08:01:06;;;;;;;0.68;0.45;;;21.80;49.70;;;;;;5018960;28;20029;-35
2023/12/29 08:03:32;;;;;;;0.63;0.40;;;21.80;49.60;;;;;;5016657;28;20053;-34
2023/12/29 08:05:58;;;;;;;0.30;0.30;;;21.80;49.60;;;;;;5019015;28;20040;-34
2023/12/29 08:08:24;;;;;;;3.42;0.40;;;21.70;49.80;;;;;;5049823;27;20040;-34
2023/12/29 08:10:51;;;;;;;1.52;0.40;;;21.60;50.00;;;;;;5120164;27;20030;-34
2023/12/29 08:13:17;;;;;;;2.40;0.30;;;21.60;49.80;;;;;;5118768;28;20043;-34
2023/12/29 08:15:43;;;;;;;0.68;0.20;;;21.70;49.70;;;;;;5121568;28;20024;-34
2023/12/29 08:18:10;;;;;;;0.40;0.35;;;21.90;49.50;;;;;;5118760;28;20116;-34
2023/12/29 08:20:36;;;;;;;0.30;0.30;;;21.90;49.50;;;;;;5118380;28;20039;-34
2023/12/29 08:23:03;;;;;;;0.30;0.20;;;22.00;49.50;;;;;;5119625;28;20043;-33
2023/12/29 08:25:29;;;;;;;0.22;0.22;;;22.00;49.40;;;;;;5117976;28;20020;-34
2023/12/29 08:27:58;;;;;;;0.45;0.30;;;22.00;49.40;;;;;;5119973;27;20035;-34
2023/12/29 08:30:24;;;;;;;0.40;0.22;;;22.10;49.20;;;;;;5113953;28;20020;-34
2023/12/29 08:32:51;;;;;;;0.40;0.20;;;22.20;48.90;;;;;;5116971;28;20028;-33
2023/12/29 08:35:17;;;;;;;0.57;0.10;;;22.10;48.90;;;;;;5115647;28;20091;-34
2023/12/29 08:37:43;;;;;;;0.50;0.30;;;22.00;49.10;;;;;;5114004;28;20090;-34
2023/12/29 08:40:09;;;;;;;0.90;0.40;;;22.00;49.10;;;;;;5113893;27;20039;-34
2023/12/29 08:42:35;;;;;;;0.67;0.30;;;21.90;49.20;;;;;;5107818;28;20031;-34
2023/12/29 08:45:03;;;;;;;1.30;0.43;;;21.90;48.90;;;;;;5121007;27;20099;-34
2023/12/29 08:47:29;;;;;;;0.25;0.20;;;21.90;48.60;;;;;;5111806;27;20047;-34
2023/12/29 08:49:55;;;;;;;0.40;0.30;;;21.80;48.90;;;;;;5111366;28;20055;-35
2023/12/29 08:52:21;;;;;;;0.22;0.20;;;21.70;49.10;;;;;;5124694;27;20112;-35
2023/12/29 08:54:47;;;;;;;0.30;0.30;;;21.60;49.10;;;;;;5121755;28;20024;-34
2023/12/29 08:57:13;;;;;;;0.40;0.30;;;21.60;49.20;;;;;;5116285;28;20072;-35
2023/12/29 08:59:40;;;;;;;0.70;0.30;;;21.60;49.00;;;;;;5115083;28;20065;-36
2023/12/29 09:02:06;;;;;;;0.73;0.28;;;21.60;48.80;;;;;;5117455;28;20089;-35
2023/12/29 09:04:32;;;;;;;0.40;0.40;;;21.60;48.80;;;;;;5117997;27;20039;-35
2023/12/29 09:06:58;;;;;;;0.35;0.35;;;21.50;48.90;;;;;;5108291;28;20028;-35
2023/12/29 09:09:25;;;;;;;1.13;0.30;;;21.60;49.00;;;;;;5114740;27;20034;-35
2023/12/29 09:11:51;;;;;;;0.60;0.28;;;21.70;48.90;;;;;;5120366;28;20040;-36
2023/12/29 09:14:17;;;;;;;0.45;0.20;;;21.80;48.80;;;;;;5112280;28;20031;-36
2023/12/29 09:16:46;;;;;;;0.20;0.20;;;22.00;48.40;;;;;;5111896;27;20028;-35
2023/12/29 09:19:13;;;;;;;0.30;0.30;;;21.90;48.60;;;;;;5111217;27;20032;-35
2023/12/29 09:21:39;;;;;;;1.35;0.35;;;21.80;48.60;;;;;;5113449;28;20084;-35
2023/12/29 09:24:05;;;;;;;0.40;0.30;;;21.70;48.70;;;;;;5114261;28;20052;-35
2023/12/29 09:26:31;;;;;;;0.43;0.30;;;21.70;48.70;;;;;;5113287;28;20039;-35
2023/12/29 09:28:58;;;;;;;0.30;0.30;;;21.60;48.50;;;;;;5111255;28;20031;-36
2023/12/29 09:31:24;;;;;;;0.30;0.30;;;21.60;48.70;;;;;;5110621;28;20472;-35
2023/12/29 09:33:50;;;;;;;0.35;0.30;;;21.60;48.90;;;;;;5109664;28;20024;-34
2023/12/29 09:36:16;;;;;;;0.30;0.30;;;21.50;49.20;;;;;;5113047;28;20032;-34
2023/12/29 09:38:46;;;;;;;0.20;0.20;;;21.40;49.40;;;;;;5120341;28;20023;-35
2023/12/29 09:41:14;;;;;;;1.08;0.30;;;21.40;49.30;;;;;;5116738;28;20477;-35
2023/12/29 09:43:40;;;;;;;0.52;0.40;;;21.40;49.10;;;;;;5083246;28;20059;-35
2023/12/29 09:46:07;;;;;;;1.20;0.40;;;21.50;49.00;;;;;;5116965;28;20023;-35
2023/12/29 09:48:33;;;;;;;1.55;0.52;;;21.60;49.10;;;;;;5109790;28;20028;-35
2023/12/29 09:50:59;;;;;;;0.40;0.30;;;21.60;49.10;;;;;;5098724;28;20051;-35
2023/12/29 09:53:25;;;;;;;0.43;0.30;;;21.70;49.20;;;;;;5114553;28;20032;-35
2023/12/29 09:55:51;;;;;;;0.40;0.30;;;21.70;49.20;;;;;;5113397;28;20023;-35
2023/12/29 09:58:19;;;;;;;16.70;0.73;;;21.90;48.80;;;;;;5111447;28;20036;-35
2023/12/29 10:00:47;;;;;;;14.43;1.02;;;21.90;48.90;;;;;;5097295;28;20259;-35
2023/12/29 10:03:13;;;;;;;16.73;0.98;;;21.90;49.00;;;;;;5119730;27;20031;-35
2023/12/29 10:05:39;;;;;;;8.27;0.87;;;21.80;49.00;;;;;;5119239;28;20024;-35
2023/12/29 10:08:06;;;;;;;7.07;1.00;;;21.70;49.20;;;;;;5120586;27;20040;-35
2023/12/29 10:10:32;;;;;;;3.58;0.57;;;21.60;49.20;;;;;;5119959;28;20023;-34
2023/12/29 10:12:58;;;;;;;2.17;0.50;;;21.70;48.80;;;;;;5093655;28;20035;-35
2023/12/29 10:15:50;;;;;;;5.18;0.60;;;21.60;48.80;;;;;;5114378;28;20026;-35
2023/12/29 10:18:25;;;;;;;0.73;0.43;;;21.50;49.00;;;;;;5119556;28;20067;-35
2023/12/29 10:21:14;;;;;;;3.75;0.57;;;21.40;49.20;;;;;;5103540;28;20114;-35
2023/12/29 10:23:43;;;;;;;3.85;0.55;;;21.30;49.30;;;;;;5092490;28;20035;-35
2023/12/29 10:26:11;;;;;;;2.65;0.50;;;21.40;49.20;;;;;;5096745;28;20113;-35
2023/12/29 10:28:37;;;;;;;;;;;21.50;48.90;;;;;;5118873;27;20106;-35
2023/12/29 10:31:04;;;;;;;0.52;0.30;;;21.60;48.80;;;;;;5118281;27;19911;-34
2023/12/29 10:33:32;;;;;;;1.00;0.47;;;21.60;48.80;;;;;;5112922;28;20031;-34
2023/12/29 10:36:06;;;;;;;;;;;21.70;48.80;;;;;;5113439;28;20173;-35
2023/12/29 10:38:33;;;;;;;0.85;0.38;;;21.70;49.00;;;;;;5117474;28;20376;-36
2023/12/29 10:41:16;;;;;;;0.50;0.32;;;21.80;48.90;;;;;;5116817;28;20091;-36
2023/12/29 10:43:43;;;;;;;0.43;0.38;;;21.90;48.40;;;;;;5108905;28;20061;-35
2023/12/29 10:46:10;;;;;;;0.73;0.40;;;21.90;48.40;;;;;;5115004;28;20119;-35
2023/12/29 10:48:37;;;;;;;1.60;0.50;;;21.80;48.50;;;;;;5118935;27;20059;-36
2023/12/29 10:51:04;;;;;;;0.30;0.30;;;21.70;48.60;;;;;;5109981;28;20064;-34
2023/12/29 10:53:33;;;;;;;0.50;0.40;;;21.60;48.80;;;;;;5113491;28;20020;-35
2023/12/29 10:56:00;;;;;;;0.50;0.30;;;21.70;48.60;;;;;;5095959;28;20020;-35
2023/12/29 10:58:49;;;;;;;0.65;0.50;;;21.60;48.30;;;;;;5121797;28;20195;-35
2023/12/29 11:01:19;;;;;;;0.65;0.40;;;21.60;48.50;;;;;;5058897;28;20063;-35
2023/12/29 11:03:45;;;;;;;0.60;0.32;;;21.50;48.80;;;;;;5054474;28;20192;-34
2023/12/29 11:06:12;;;;;;;0.30;0.30;;;21.40;48.90;;;;;;5042231;28;20049;-34
2023/12/29 11:08:38;;;;;;;0.57;0.32;;;21.40;49.60;;;;;;5057395;28;20112;-34
2023/12/29 11:11:04;;;;;;;0.60;0.43;;;21.40;48.70;;;;;;5057746;28;20025;-35
2023/12/29 11:13:30;;;;;;;0.40;0.38;;;21.50;48.60;;;;;;5057822;28;20062;-35
2023/12/29 11:15:57;;;;;;;0.43;0.35;;;21.60;48.60;;;;;;5056717;28;20108;-34
2023/12/29 11:18:23;;;;;;;0.52;0.40;;;21.70;48.60;;;;;;5058267;28;20033;-34
2023/12/29 11:20:49;;;;;;;0.32;0.30;;;21.70;48.60;;;;;;5059270;28;20074;-35
2023/12/29 11:23:18;;;;;;;0.32;0.30;;;21.80;48.70;;;;;;5058083;28;20061;-35
2023/12/29 11:25:48;;;;;;;0.40;0.30;;;21.90;48.40;;;;;;5041558;28;20047;-35
2023/12/29 11:28:15;;;;;;;0.30;0.30;;;22.00;48.20;;;;;;5057774;28;20099;-35
2023/12/29 11:30:41;;;;;;;0.70;0.30;;;21.90;48.30;;;;;;5063314;28;20164;-34
2023/12/29 11:33:22;;;;;;;0.45;0.45;;;21.90;48.40;;;;;;5058610;28;20037;-34
2023/12/29 11:35:50;;;;;;;0.30;0.30;;;21.80;48.50;;;;;;5044074;28;20040;-34
2023/12/29 11:38:55;;;;;;;0.40;0.32;;;21.70;48.50;;;;;;5069221;28;20047;-39
2023/12/29 11:41:23;;;;;;;0.30;0.25;;;21.70;48.20;;;;;;5099339;28;20032;-35
2023/12/29 11:43:58;;;;;;;0.40;0.40;;;21.70;48.50;;;;;;5120764;28;20070;-35
2023/12/29 11:46:37;;;;;;;0.70;0.30;;;21.60;48.60;;;;;;5114758;28;20027;-35
2023/12/29 11:49:04;;;;;;;1.75;0.50;;;21.50;48.80;;;;;;5112909;27;20035;-34
2023/12/29 11:51:40;;;;;;;0.70;0.47;;;21.50;49.00;;;;;;5117755;28;20032;-34
2023/12/29 11:54:09;;;;;;;1.48;0.40;;;21.50;48.90;;;;;;5101654;28;20083;-35
2023/12/29 11:56:43;;;;;;;0.30;0.30;;;21.50;48.50;;;;;;5100298;28;20066;-34
2023/12/29 11:59:13;;;;;;;0.30;0.30;;;21.60;48.70;;;;;;5099252;28;20063;-34
2023/12/29 12:01:39;;;;;;;0.45;0.40;;;21.70;48.70;;;;;;5111699;28;20788;-35
2023/12/29 12:04:39;;;;;;;0.47;0.32;;;21.70;48.60;;;;;;5120746;27;20042;-35
2023/12/29 12:07:07;;;;;;;0.40;0.30;;;21.80;48.60;;;;;;5118037;28;20092;-35
2023/12/29 12:09:34;;;;;;;0.50;0.40;;;21.90;48.40;;;;;;5119761;28;20053;-35
2023/12/29 12:12:04;;;;;;;0.68;0.50;;;22.00;48.30;;;;;;5117821;28;20050;-35
2023/12/29 12:14:50;;;;;;;0.43;0.38;;;21.90;48.40;;;;;;5119906;28;20036;-34
2023/12/29 12:17:32;;;;;;;0.50;0.45;;;21.80;48.40;;;;;;5117423;28;20020;-34
2023/12/29 12:20:11;;;;;;;0.68;0.40;;;21.70;48.60;;;;;;5118080;27;20034;-35
2023/12/29 12:22:37;;;;;;;1.65;0.30;;;21.70;48.60;;;;;;5116787;28;20101;-35
2023/12/29 12:25:04;;;;;;;0.50;0.40;;;21.70;48.40;;;;;;5119655;27;20091;-34
2023/12/29 12:27:31;;;;;;;0.30;0.30;;;21.70;48.50;;;;;;5120900;28;20031;-35
2023/12/29 12:29:59;;;;;;;;;;;21.60;48.80;;;;;;5119510;28;20042;-35
2023/12/29 12:32:26;;;;;;;0.70;0.50;;;21.50;49.10;;;;;;5117199;28;19912;-35
2023/12/29 12:34:52;;;;;;;;;;;21.50;49.00;;;;;;5120485;27;20492;-35
2023/12/29 12:37:26;;;;;;;0.60;0.47;;;21.50;48.90;;;;;;5114211;28;19918;-34
2023/12/29 12:39:52;;;;;;;0.30;0.30;;;21.50;48.80;;;;;;5117784;28;20096;-35
2023/12/29 12:42:22;;;;;;;0.50;0.40;;;21.60;48.80;;;;;;5117217;28;20051;-35
2023/12/29 12:45:05;;;;;;;0.40;0.32;;;21.70;48.80;;;;;;5119228;27;20042;-35
2023/12/29 12:47:36;;;;;;;0.40;0.40;;;21.70;48.80;;;;;;5118775;28;20036;-35
2023/12/29 12:50:02;;;;;;;0.40;0.30;;;21.80;48.80;;;;;;5096301;28;20523;-35